Terminal Aerodrome Forecast
Issued by NWS

Home | Current Version | Previous Version | Text Only | Print | Product List | Glossary Off
Versions: 1 2 3 4 5 6 7 8 9 10 11 12 13 14 15 16 17 18 19 20 21 22 23 24 25 26 27 28 29 30 31 32

000
FTUS43 KLOT 261959 AAA
TAFORD
TAF AMD
KORD 261959Z 2620/2724 01008KT P6SM OVC030
     FM262200 05008KT P6SM BKN035
     FM270300 VRB03KT P6SM SCT035
     FM271800 12008KT P6SM SCT035=

USA.gov is the U.S. government's official web portal to all federal, state and local government web resources and services.